createdAt,value
2023-03-07T00:00:45.101Z,99484.59
2023-03-07T00:03:12.828Z,99479.84
2023-03-07T00:05:39.233Z,99475.53
2023-03-07T00:08:05.989Z,99472.00
2023-03-07T00:10:32.718Z,99468.91
2023-03-07T00:12:59.306Z,99464.44
2023-03-07T00:15:26.044Z,99459.84
2023-03-07T00:17:52.594Z,99455.34
2023-03-07T00:20:19.164Z,99455.34
2023-03-07T00:22:46.930Z,99441.63
2023-03-07T00:25:15.040Z,99446.38
2023-03-07T00:27:41.885Z,99443.56
2023-03-07T00:30:12.349Z,99431.34
2023-03-07T00:32:38.912Z,99440.59
2023-03-07T00:35:05.842Z,99426.94
2023-03-07T00:37:32.341Z,99424.72
2023-03-07T00:39:58.801Z,99418.44
2023-03-07T00:42:25.263Z,99415.41
2023-03-07T00:44:51.718Z,99405.78
2023-03-07T00:47:18.161Z,99399.31
2023-03-07T00:49:44.645Z,99395.03
2023-03-07T00:52:11.087Z,99392.53
2023-03-07T00:54:37.580Z,99385.13
2023-03-07T00:57:04.135Z,99373.75
2023-03-07T00:59:30.707Z,99374.44
2023-03-07T01:01:57.127Z,99373.81
2023-03-07T01:04:23.775Z,99365.69
2023-03-07T01:06:50.737Z,99362.88
2023-03-07T01:09:17.153Z,99363.41
2023-03-07T01:11:43.623Z,99355.88
2023-03-07T01:14:10.749Z,99346.66
2023-03-07T01:16:38.393Z,99338.63
2023-03-07T01:19:08.293Z,99338.59
2023-03-07T01:21:38.182Z,99334.69
2023-03-07T01:24:06.164Z,99324.34
2023-03-07T01:26:33.485Z,99323.03
2023-03-07T01:29:02.433Z,99319.09
2023-03-07T01:31:30.457Z,99314.00
2023-03-07T01:33:57.127Z,99311.09
2023-03-07T01:36:30.131Z,99310.97
2023-03-07T01:39:06.960Z,99289.34
2023-03-07T01:41:37.544Z,99281.88
2023-03-07T01:44:14.662Z,99276.09
2023-03-07T01:46:46.122Z,99271.97
2023-03-07T01:49:20.959Z,99265.53
2023-03-07T01:51:52.345Z,99252.84
2023-03-07T01:54:20.134Z,99248.66
2023-03-07T01:56:47.672Z,99249.78
2023-03-07T01:59:19.457Z,99242.59
2023-03-07T02:01:46.029Z,99239.13
2023-03-07T02:04:17.202Z,99236.25
2023-03-07T02:07:33.550Z,99226.25
2023-03-07T02:10:03.980Z,99215.50
2023-03-07T02:12:30.442Z,99212.13
2023-03-07T02:14:57.306Z,99212.22
2023-03-07T02:17:24.781Z,99200.63
2023-03-07T02:20:19.040Z,99196.13
2023-03-07T02:22:45.582Z,99191.34
2023-03-07T02:25:36.399Z,99183.22
2023-03-07T02:28:04.444Z,99179.06
2023-03-07T02:30:31.083Z,99172.06
2023-03-07T02:32:57.648Z,99163.28
2023-03-07T02:35:25.510Z,99161.94
2023-03-07T02:38:01.696Z,99161.84
2023-03-07T02:40:30.954Z,99145.38
2023-03-07T02:43:02.073Z,99144.16
2023-03-07T02:45:28.677Z,99133.19
2023-03-07T02:47:55.168Z,99129.84
2023-03-07T02:50:21.715Z,99123.78
2023-03-07T02:52:49.615Z,99124.09
2023-03-07T02:55:16.306Z,99115.22
2023-03-07T02:57:42.774Z,99114.06
2023-03-07T03:00:11.193Z,99105.06
2023-03-07T03:02:38.097Z,99100.03
2023-03-07T04:16:53.290Z,98934.63
2023-03-07T04:19:21.944Z,98926.44
2023-03-07T04:21:48.482Z,98917.38
2023-03-07T04:24:15.050Z,98911.94
2023-03-07T04:26:41.547Z,98912.53
2023-03-07T04:29:08.029Z,98901.84
2023-03-07T04:31:34.519Z,98904.22
2023-03-07T04:34:01.048Z,98909.34
2023-03-07T04:36:27.530Z,98899.72
2023-03-07T05:13:59.210Z,98839.19
2023-03-07T05:16:25.905Z,98850.47
2023-03-07T05:18:52.363Z,98838.22
2023-03-07T05:21:18.843Z,98837.38
2023-03-07T05:23:45.259Z,98834.78
2023-03-07T05:26:11.748Z,98842.31
2023-03-07T05:28:38.303Z,98831.56
2023-03-07T05:31:05.077Z,98822.66
2023-03-07T05:33:31.887Z,98835.06
2023-03-07T05:36:02.144Z,98831.72
2023-03-07T05:38:28.672Z,98820.28
2023-03-07T05:40:55.208Z,98819.94
2023-03-07T05:43:21.685Z,98814.81
2023-03-07T05:45:48.152Z,98818.03
2023-03-07T05:48:14.576Z,98825.56
2023-03-07T05:50:42.034Z,98835.09
2023-03-07T05:53:08.786Z,98823.44
2023-03-07T05:55:35.456Z,98816.53
2023-03-07T05:58:01.980Z,98817.44
2023-03-07T06:00:28.464Z,98817.44
2023-03-07T06:02:54.969Z,98818.06
2023-03-07T06:05:22.495Z,98820.59
2023-03-07T06:07:50.246Z,98814.50
2023-03-07T06:10:17.036Z,98811.53
2023-03-07T06:12:43.595Z,98820.00
2023-03-07T06:15:10.398Z,98826.06
2023-03-07T06:17:37.801Z,98808.31
2023-03-07T06:20:04.872Z,98809.16
2023-03-07T06:22:32.088Z,98814.91
2023-03-07T06:24:58.537Z,98814.78
2023-03-07T06:27:25.255Z,98807.78
2023-03-07T06:29:51.734Z,98807.50
2023-03-07T06:32:18.198Z,98809.91
2023-03-07T06:34:44.743Z,98801.94
2023-03-07T06:37:11.150Z,98802.88
2023-03-07T06:39:37.599Z,98801.56
2023-03-07T06:42:04.168Z,98804.31
2023-03-07T06:44:30.663Z,98807.66
2023-03-07T06:46:57.099Z,98803.13
2023-03-07T06:49:23.650Z,98822.31
2023-03-07T06:51:50.050Z,98812.66
2023-03-07T06:54:16.504Z,98817.44
2023-03-07T06:56:45.334Z,98824.47
2023-03-07T06:59:11.970Z,98829.47
2023-03-07T07:01:38.533Z,98829.00
2023-03-07T07:04:05.183Z,98825.06
2023-03-07T07:06:31.662Z,98830.69
2023-03-07T07:08:59.208Z,98823.50
2023-03-07T07:11:26.375Z,98809.22
2023-03-07T07:13:52.889Z,98817.66
2023-03-07T07:16:19.779Z,98808.13
2023-03-07T07:18:46.445Z,98815.91
2023-03-07T07:21:12.886Z,98799.44
2023-03-07T07:23:39.805Z,98808.25
2023-03-07T07:26:06.669Z,98804.44
2023-03-07T07:28:33.395Z,98805.28
2023-03-07T07:30:59.911Z,98800.63
2023-03-07T07:33:26.409Z,98802.19
2023-03-07T07:35:52.915Z,98803.00
2023-03-07T07:38:19.418Z,98800.16
2023-03-07T07:40:45.994Z,98798.31
2023-03-07T07:43:15.351Z,98792.75
2023-03-07T07:45:42.156Z,98799.88
2023-03-07T07:48:08.971Z,98791.31
2023-03-07T07:50:35.691Z,98793.44
2023-03-07T07:53:02.185Z,98790.13
2023-03-07T07:55:28.757Z,98794.41
2023-03-07T07:57:55.171Z,98790.94
2023-03-07T08:00:21.818Z,98797.84
2023-03-07T08:02:51.990Z,98798.69
2023-03-07T08:05:21.500Z,98788.19
2023-03-07T08:07:48.689Z,98788.06
2023-03-07T08:10:16.465Z,98794.00
2023-03-07T08:12:49.663Z,98784.44
2023-03-07T08:15:17.128Z,98787.22
2023-03-07T08:17:44.389Z,98788.03
2023-03-07T08:20:11.379Z,98790.28
2023-03-07T08:22:38.680Z,98801.38
2023-03-07T08:25:06.592Z,98789.34
2023-03-07T08:27:33.608Z,98783.72
2023-03-07T08:30:01.396Z,98772.41
2023-03-07T08:32:28.187Z,98781.88
2023-03-07T08:34:54.730Z,98779.00
2023-03-07T08:37:21.579Z,98782.53
2023-03-07T08:39:48.035Z,98780.34
2023-03-07T08:42:14.523Z,98777.31
2023-03-07T08:44:41.059Z,98784.63
2023-03-07T08:47:07.530Z,98786.66
2023-03-07T08:49:34.165Z,98785.19
2023-03-07T08:52:00.630Z,98782.16
2023-03-07T08:54:28.185Z,98782.47
2023-03-07T08:56:54.714Z,98781.84
2023-03-07T08:59:21.456Z,98785.34
2023-03-07T09:01:48.023Z,98777.47
2023-03-07T09:04:15.261Z,98786.91
2023-03-07T09:06:41.889Z,98784.28
2023-03-07T09:09:11.643Z,98784.84
2023-03-07T09:11:43.642Z,98775.41
2023-03-07T09:14:10.755Z,98784.38
2023-03-07T09:16:40.525Z,98776.44
2023-03-07T09:19:07.892Z,98778.16
2023-03-07T09:21:51.063Z,98771.09
2023-03-07T09:24:17.557Z,98780.25
2023-03-07T09:26:44.150Z,98778.38
2023-03-07T09:29:10.944Z,98777.84
2023-03-07T09:31:37.678Z,98780.91
2023-03-07T09:34:05.450Z,98782.50
2023-03-07T09:36:32.173Z,98775.50
2023-03-07T09:38:58.714Z,98778.44
2023-03-07T09:41:50.029Z,98778.72
2023-03-07T09:44:32.251Z,98778.56
2023-03-07T09:47:23.195Z,98786.91
2023-03-07T09:49:51.345Z,98778.28
2023-03-07T09:52:21.791Z,98784.25
2023-03-07T09:55:18.501Z,98774.16
2023-03-07T09:57:50.556Z,98772.75
2023-03-07T10:00:38.067Z,98776.91
2023-03-07T10:03:26.479Z,98775.09
2023-03-07T10:05:57.297Z,98772.72
2023-03-07T10:08:30.200Z,98767.59
2023-03-07T10:11:10.328Z,98767.03
2023-03-07T10:14:17.910Z,98776.34
2023-03-07T10:17:07.146Z,98778.25
2023-03-07T10:19:48.671Z,98770.28
2023-03-07T10:22:34.115Z,98770.94
2023-03-07T10:25:25.777Z,98779.41
2023-03-07T10:27:59.989Z,98784.16
2023-03-07T10:30:31.692Z,98783.16
2023-03-07T10:33:01.469Z,98783.00
2023-03-07T10:35:47.242Z,98779.00
2023-03-07T10:38:27.228Z,98782.03
2023-03-07T10:41:17.442Z,98779.56
2023-03-07T10:43:45.656Z,98779.41
2023-03-07T10:46:25.715Z,98776.22
2023-03-07T10:49:10.121Z,98777.59
2023-03-07T10:51:56.107Z,98773.97
2023-03-07T10:54:30.034Z,98772.34
2023-03-07T10:57:17.353Z,98766.50
2023-03-07T10:59:48.712Z,98768.41
2023-03-07T11:02:37.837Z,98775.38
2023-03-07T11:05:31.079Z,98758.88
2023-03-07T11:07:58.684Z,98758.47
2023-03-07T11:10:39.429Z,98752.09
2023-03-07T11:13:18.631Z,98752.34
2023-03-07T11:15:46.064Z,98744.91
2023-03-07T11:18:42.525Z,98742.38
2023-03-07T11:21:29.507Z,98741.97
2023-03-07T11:24:16.969Z,98732.50
2023-03-07T11:26:43.564Z,98739.03
2023-03-07T11:29:13.094Z,98733.34
2023-03-07T11:31:58.040Z,98736.13
2023-03-07T11:34:28.405Z,98728.53
2023-03-07T11:37:00.424Z,98726.59
2023-03-07T11:39:55.598Z,98727.13
2023-03-07T11:42:26.992Z,98718.84
2023-03-07T11:44:57.823Z,98716.88
2023-03-07T11:47:52.074Z,98712.03
2023-03-07T11:50:31.883Z,98709.66
2023-03-07T11:53:35.629Z,98708.56
2023-03-07T11:56:20.200Z,98709.41
2023-03-07T11:58:49.359Z,98712.84
2023-03-07T12:01:40.793Z,98714.66
2023-03-07T12:04:41.125Z,98716.03
2023-03-07T12:07:30.565Z,98718.00
2023-03-07T12:10:31.112Z,98703.72
2023-03-07T12:13:11.969Z,98711.50
2023-03-07T12:16:11.775Z,98716.88
2023-03-07T12:19:23.291Z,98720.75
2023-03-07T12:22:38.112Z,98708.00
2023-03-07T12:25:13.017Z,98719.66
2023-03-07T12:27:45.510Z,98714.53
2023-03-07T12:30:14.998Z,98711.47
2023-03-07T12:32:41.842Z,98713.25
2023-03-07T12:35:22.578Z,98712.69
2023-03-07T12:37:59.629Z,98714.91
2023-03-07T12:40:34.013Z,98719.19
2023-03-07T12:43:13.474Z,98713.50
2023-03-07T12:45:53.298Z,98723.16
2023-03-07T12:48:43.246Z,98711.53
2023-03-07T12:51:16.442Z,98706.78
2023-03-07T12:54:06.093Z,98713.56
2023-03-07T12:56:55.494Z,98710.44
2023-03-07T12:59:22.582Z,98704.91
2023-03-07T13:01:59.729Z,98704.84
2023-03-07T13:04:36.335Z,98720.41
2023-03-07T13:07:13.382Z,98720.91
2023-03-07T13:09:43.201Z,98724.53
2023-03-07T13:12:23.229Z,98735.56
2023-03-07T13:14:58.503Z,98725.50
2023-03-07T13:17:33.184Z,98728.19
2023-03-07T13:20:28.750Z,98725.16
2023-03-07T13:22:58.179Z,98727.53
2023-03-07T13:26:05.587Z,98734.91
2023-03-07T13:28:44.968Z,98730.25
2023-03-07T13:31:16.152Z,98732.31
2023-03-07T13:33:43.744Z,98734.97
2023-03-07T13:36:38.739Z,98737.13
2023-03-07T13:39:35.573Z,98731.91
2023-03-07T13:42:02.210Z,98730.19
2023-03-07T13:44:40.127Z,98730.31
2023-03-07T13:47:44.254Z,98728.25
2023-03-07T13:50:37.410Z,98735.00
2023-03-07T13:53:13.477Z,98739.66
2023-03-07T13:55:46.557Z,98734.97
2023-03-07T13:58:28.846Z,98736.81
2023-03-07T14:01:00.153Z,98734.03
2023-03-07T14:03:37.127Z,98738.31
2023-03-07T14:06:29.116Z,98739.09
2023-03-07T14:08:55.701Z,98720.94
2023-03-07T14:11:28.506Z,98728.81
2023-03-07T14:14:20.856Z,98715.25
2023-03-07T14:17:28.534Z,98726.50
2023-03-07T14:20:11.396Z,98729.38
2023-03-07T14:23:07.064Z,98725.31
2023-03-07T14:25:36.963Z,98715.38
2023-03-07T14:28:19.853Z,98718.59
2023-03-07T14:30:56.014Z,98717.72
2023-03-07T14:33:33.291Z,98715.78
2023-03-07T14:36:00.472Z,98722.69
2023-03-07T14:38:28.086Z,98722.16
2023-03-07T14:40:57.772Z,98718.50
2023-03-07T14:43:53.443Z,98718.00
2023-03-07T14:46:42.789Z,98720.00
2023-03-07T14:49:18.548Z,98725.81
2023-03-07T14:51:45.239Z,98718.09
2023-03-07T14:54:16.967Z,98733.81
2023-03-07T14:56:44.025Z,98738.31
2023-03-07T14:59:25.915Z,98732.16
2023-03-07T15:01:54.520Z,98722.78
2023-03-07T15:04:32.165Z,98724.13
2023-03-07T15:07:01.457Z,98732.22
2023-03-07T15:09:29.615Z,98725.09
2023-03-07T15:12:06.710Z,98724.75
2023-03-07T15:14:45.950Z,98726.44
2023-03-07T15:17:19.011Z,98731.13
2023-03-07T15:19:52.654Z,98737.44
2023-03-07T15:22:28.969Z,98737.84
2023-03-07T15:24:55.993Z,98729.97
2023-03-07T15:27:34.119Z,98730.00
2023-03-07T15:30:03.186Z,98735.47
2023-03-07T15:32:41.209Z,98740.31
2023-03-07T15:35:07.610Z,98737.81
2023-03-07T15:37:55.473Z,98733.91
2023-03-07T15:40:33.330Z,98743.16
2023-03-07T15:43:16.849Z,98746.91
2023-03-07T15:45:58.683Z,98758.00
2023-03-07T15:48:34.435Z,98758.41
2023-03-07T15:51:06.273Z,98766.72
2023-03-07T15:53:43.982Z,98766.16
2023-03-07T15:56:24.465Z,98778.06
2023-03-07T15:58:51.519Z,98774.59
2023-03-07T16:01:22.847Z,98779.31
2023-03-07T16:04:30.781Z,98770.03
2023-03-07T16:06:57.284Z,98777.75
2023-03-07T16:09:23.875Z,98774.97
2023-03-07T16:11:50.371Z,98778.41
2023-03-07T16:14:26.280Z,98785.13
2023-03-07T16:16:59.581Z,98779.94
2023-03-07T16:19:26.434Z,98780.78
2023-03-07T16:21:53.021Z,98777.19
2023-03-07T16:24:19.563Z,98780.06
2023-03-07T16:26:47.002Z,98777.88
2023-03-07T16:29:22.875Z,98775.91
2023-03-07T16:31:49.515Z,98782.56
2023-03-07T16:34:21.390Z,98776.44
2023-03-07T16:36:48.295Z,98779.75
2023-03-07T16:39:15.228Z,98786.97
2023-03-07T16:41:47.263Z,98793.56
2023-03-07T16:44:18.541Z,98798.00
2023-03-07T16:46:51.672Z,98804.91
2023-03-07T16:49:18.528Z,98802.09
2023-03-07T16:51:48.995Z,98802.41
2023-03-07T16:54:19.753Z,98810.41
2023-03-07T16:56:50.598Z,98814.28
2023-03-07T16:59:19.705Z,98815.34
2023-03-07T17:01:49.041Z,98811.78
2023-03-07T17:04:15.598Z,98814.28
2023-03-07T17:06:42.499Z,98813.13
2023-03-07T17:09:11.370Z,98814.78
2023-03-07T17:11:40.375Z,98813.13
2023-03-07T17:14:09.126Z,98812.53
2023-03-07T17:16:45.029Z,98822.22
2023-03-07T17:19:32.753Z,98819.84
2023-03-07T17:22:01.745Z,98824.28
2023-03-07T17:24:29.238Z,98830.38
2023-03-07T17:26:58.561Z,98825.09
2023-03-07T17:29:43.558Z,98836.44
2023-03-07T17:32:10.471Z,98846.88
2023-03-07T17:34:37.950Z,98841.63
2023-03-07T17:37:05.182Z,98844.00
2023-03-07T17:39:34.510Z,98852.28
2023-03-07T17:42:02.081Z,98843.03
2023-03-07T17:44:29.234Z,98851.63
2023-03-07T17:46:56.170Z,98844.16
2023-03-07T17:49:23.368Z,98845.09
2023-03-07T17:51:50.022Z,98846.06
2023-03-07T17:54:16.974Z,98848.09
2023-03-07T17:56:43.392Z,98855.00
2023-03-07T17:59:09.885Z,98856.94
2023-03-07T18:01:36.636Z,98855.97
2023-03-07T18:04:05.964Z,98856.72
2023-03-07T18:06:36.686Z,98863.28
2023-03-07T18:09:06.359Z,98867.22
2023-03-07T18:11:34.080Z,98866.88
2023-03-07T18:14:00.722Z,98871.03
2023-03-07T18:16:27.270Z,98869.38
2023-03-07T18:18:59.395Z,98865.78
2023-03-07T18:21:29.642Z,98865.41
2023-03-07T18:23:56.481Z,98869.94
2023-03-07T18:26:23.540Z,98858.28
2023-03-07T18:28:50.622Z,98865.31
2023-03-07T18:31:25.326Z,98868.78
2023-03-07T18:33:53.094Z,98871.56
2023-03-07T18:36:21.604Z,98876.66
2023-03-07T18:38:48.660Z,98875.97
2023-03-07T18:41:20.068Z,98883.75
2023-03-07T18:43:46.834Z,98879.94
2023-03-07T18:46:16.164Z,98881.72
2023-03-07T18:48:43.257Z,98884.25
2023-03-07T18:51:16.307Z,98882.66
2023-03-07T18:53:42.859Z,98883.75
2023-03-07T18:56:11.954Z,98892.72
2023-03-07T18:58:38.971Z,98898.94
2023-03-07T19:01:16.277Z,98896.66
2023-03-07T19:03:44.077Z,98890.22
2023-03-07T19:06:11.266Z,98889.03
2023-03-07T19:08:37.820Z,98902.88
2023-03-07T19:11:06.703Z,98904.28
2023-03-07T19:13:33.684Z,98897.88
2023-03-07T19:16:08.491Z,98895.47
2023-03-07T19:18:36.158Z,98902.16
2023-03-07T19:21:10.410Z,98899.28
2023-03-07T19:23:37.132Z,98899.03
2023-03-07T19:26:05.029Z,98907.06
2023-03-07T19:28:32.719Z,98905.28
2023-03-07T19:31:14.137Z,98920.69
2023-03-07T19:33:41.403Z,98929.16
2023-03-07T19:36:13.288Z,98918.63
2023-03-07T19:38:40.272Z,98926.53
2023-03-07T19:41:11.815Z,98916.97
2023-03-07T19:43:38.361Z,98924.13
2023-03-07T19:46:06.834Z,98929.63
2023-03-07T19:48:33.326Z,98925.81
2023-03-07T19:51:00.378Z,98925.56
2023-03-07T19:53:26.911Z,98936.31
2023-03-07T19:55:53.332Z,98945.28
2023-03-07T19:58:19.798Z,98935.72
2023-03-07T20:00:46.752Z,98936.81
2023-03-07T20:03:15.463Z,98932.59
2023-03-07T20:05:48.481Z,98943.47
2023-03-07T20:08:15.938Z,98939.53
2023-03-07T20:10:43.302Z,98939.31
2023-03-07T20:13:09.970Z,98948.38
2023-03-07T20:15:36.699Z,98941.81
2023-03-07T20:18:06.001Z,98955.66
2023-03-07T20:20:35.546Z,98956.84
2023-03-07T20:23:02.066Z,98956.41
2023-03-07T20:25:29.836Z,98963.66
2023-03-07T20:27:56.296Z,98962.84
2023-03-07T20:30:23.699Z,98967.97
2023-03-07T20:32:50.185Z,98965.22
2023-03-07T20:35:16.922Z,98978.47
2023-03-07T20:37:43.326Z,98981.78
2023-03-07T20:40:10.398Z,98979.31
2023-03-07T20:42:37.065Z,98985.75
2023-03-07T20:45:03.881Z,98982.28
2023-03-07T20:47:32.411Z,98991.59
2023-03-07T20:49:58.872Z,98989.94
2023-03-07T20:52:25.918Z,98986.56
2023-03-07T20:54:52.370Z,99003.19
2023-03-07T20:57:18.787Z,98988.38
2023-03-07T20:59:45.258Z,99001.75
2023-03-07T21:02:11.873Z,99004.00
2023-03-07T21:04:38.366Z,99005.78
2023-03-07T21:07:05.314Z,99014.03
2023-03-07T21:09:31.887Z,99007.47
2023-03-07T21:11:58.486Z,99004.00
2023-03-07T21:14:26.889Z,99010.09
2023-03-07T21:16:53.440Z,99021.31
2023-03-07T21:19:20.240Z,99024.19
2023-03-07T21:21:46.872Z,99032.06
2023-03-07T21:24:15.410Z,99039.47
2023-03-07T21:26:41.820Z,99034.22
2023-03-07T21:29:08.936Z,99038.38
2023-03-07T21:31:36.874Z,99048.03
2023-03-07T21:34:06.507Z,99043.28
2023-03-07T21:36:34.086Z,99045.19
2023-03-07T21:39:02.011Z,99049.25
2023-03-07T21:41:28.560Z,99040.63
2023-03-07T21:43:56.192Z,99041.50
2023-03-07T21:46:23.928Z,99057.34
2023-03-07T21:48:50.484Z,99055.56
2023-03-07T21:51:17.236Z,99059.88
2023-03-07T21:53:43.775Z,99060.56
2023-03-07T21:56:13.383Z,99059.25
2023-03-07T21:58:40.758Z,99070.72
2023-03-07T22:01:16.037Z,99070.59
2023-03-07T22:03:43.210Z,99075.25
2023-03-07T22:06:12.952Z,99074.75
2023-03-07T22:08:40.032Z,99077.16
2023-03-07T22:11:08.609Z,99077.00
2023-03-07T22:13:36.512Z,99081.78
2023-03-07T22:16:07.569Z,99082.84
2023-03-07T22:18:34.476Z,99093.34
2023-03-07T22:21:07.334Z,99093.97
2023-03-07T22:23:33.957Z,99102.19
2023-03-07T22:26:05.660Z,99099.81
2023-03-07T22:28:32.600Z,99099.56
2023-03-07T22:31:08.831Z,99096.94
2023-03-07T22:33:35.722Z,99094.44
2023-03-07T22:36:05.539Z,99103.38
2023-03-07T22:38:32.719Z,99103.25
2023-03-07T22:41:06.464Z,99107.66
2023-03-07T22:43:35.098Z,99105.56
2023-03-07T22:46:01.648Z,99112.09
2023-03-07T22:48:28.908Z,99111.50
2023-03-07T22:50:55.650Z,99111.63
2023-03-07T22:53:22.076Z,99119.59
2023-03-07T22:55:48.599Z,99115.66
2023-03-07T22:58:15.212Z,99110.41
2023-03-07T23:00:43.678Z,99116.81
2023-03-07T23:03:10.533Z,99120.31
2023-03-07T23:05:37.112Z,99125.66
2023-03-07T23:08:04.469Z,99126.22
2023-03-07T23:10:31.420Z,99110.03
2023-03-07T23:12:58.407Z,99116.00
2023-03-07T23:15:25.334Z,99115.28
2023-03-07T23:17:52.171Z,99118.97
2023-03-07T23:20:19.749Z,99124.09
2023-03-07T23:22:46.873Z,99118.22
2023-03-07T23:25:15.026Z,99120.97
2023-03-07T23:27:41.544Z,99127.25
2023-03-07T23:30:09.080Z,99123.09
2023-03-07T23:32:35.910Z,99118.81
2023-03-07T23:35:02.996Z,99126.81
2023-03-07T23:37:29.651Z,99134.69
2023-03-07T23:39:57.627Z,99135.00
2023-03-07T23:42:24.233Z,99131.53
2023-03-07T23:44:50.705Z,99140.16
2023-03-07T23:47:17.318Z,99145.00
2023-03-07T23:49:44.196Z,99147.19
2023-03-07T23:52:10.967Z,99144.66
2023-03-07T23:54:37.605Z,99151.00
2023-03-07T23:57:04.094Z,99160.13
2023-03-07T23:59:30.538Z,99157.38
